createdAt,value
2018-08-28T00:00:24.153Z,8.90
2018-08-28T00:02:53.955Z,10.73
2018-08-28T00:05:23.765Z,9.93
2018-08-28T00:07:53.573Z,10.40
2018-08-28T00:10:23.274Z,12.33
2018-08-28T00:12:52.997Z,10.47
2018-08-28T00:15:22.801Z,11.00
2018-08-28T00:17:52.431Z,8.27
2018-08-28T00:20:22.132Z,12.03
2018-08-28T00:22:51.877Z,12.20
2018-08-28T00:25:21.649Z,12.70
2018-08-28T00:27:51.325Z,9.57
2018-08-28T00:30:21.032Z,11.10
2018-08-28T00:32:50.690Z,13.30
2018-08-28T00:35:20.523Z,9.67
2018-08-28T00:37:50.223Z,9.47
2018-08-28T00:40:20.085Z,11.30
2018-08-28T00:42:50.028Z,8.67
2018-08-28T00:45:20.223Z,12.03
2018-08-28T00:47:50.768Z,12.50
2018-08-28T00:50:20.447Z,10.23
2018-08-28T00:52:50.323Z,11.47
2018-08-28T00:55:19.990Z,13.77
2018-08-28T00:57:49.734Z,12.43
2018-08-28T01:00:19.390Z,12.67
2018-08-28T01:02:49.118Z,10.73
2018-08-28T01:05:20.746Z,11.60
2018-08-28T01:07:50.930Z,10.53
2018-08-28T01:10:20.586Z,12.47
2018-08-28T01:12:50.270Z,12.57
2018-08-28T01:15:20.062Z,13.20
2018-08-28T01:17:49.769Z,11.37
2018-08-28T01:20:19.478Z,11.67
2018-08-28T01:22:49.282Z,10.67
2018-08-28T01:25:19.107Z,11.10
2018-08-28T01:27:49.095Z,10.00
2018-08-28T01:30:36.198Z,12.00
2018-08-28T01:33:07.054Z,12.67
2018-08-28T01:35:36.714Z,12.43
2018-08-28T01:38:06.388Z,11.13
2018-08-28T01:40:36.171Z,12.17
2018-08-28T01:43:11.171Z,10.83
2018-08-28T01:45:40.857Z,13.30
2018-08-28T01:48:10.526Z,13.40
2018-08-28T01:50:40.915Z,14.03
2018-08-28T01:53:10.816Z,13.00
2018-08-28T01:55:40.422Z,13.90
2018-08-28T01:58:10.212Z,13.27
2018-08-28T02:00:39.792Z,14.37
2018-08-28T02:03:09.574Z,13.30
2018-08-28T02:05:39.518Z,11.93
2018-08-28T02:08:09.078Z,12.77
2018-08-28T02:10:38.842Z,13.57
2018-08-28T02:13:08.563Z,11.37
2018-08-28T02:15:38.227Z,11.67
2018-08-28T02:18:08.053Z,10.17
2018-08-28T02:20:37.688Z,11.07
2018-08-28T02:23:07.448Z,10.37
2018-08-28T02:25:37.230Z,11.17
2018-08-28T02:28:07.138Z,11.57
2018-08-28T02:30:36.914Z,10.60
2018-08-28T02:33:06.660Z,11.43
2018-08-28T02:35:36.369Z,13.60
2018-08-28T02:38:06.036Z,11.73
2018-08-28T02:40:35.834Z,11.67
2018-08-28T02:43:05.696Z,13.23
2018-08-28T02:45:35.411Z,13.23
2018-08-28T02:48:05.245Z,11.77
2018-08-28T02:50:34.929Z,11.37
2018-08-28T02:53:05.025Z,11.50
2018-08-28T02:55:35.321Z,11.47
2018-08-28T02:58:04.985Z,10.23
2018-08-28T03:00:34.779Z,12.47
2018-08-28T03:03:04.514Z,11.87
2018-08-28T03:05:34.146Z,12.20
2018-08-28T03:08:03.935Z,11.20
2018-08-28T03:10:33.707Z,12.23
2018-08-28T03:13:03.392Z,9.77
2018-08-28T03:15:33.295Z,11.77
2018-08-28T03:18:02.902Z,15.40
2018-08-28T03:20:32.916Z,13.67
2018-08-28T03:23:02.746Z,13.77
2018-08-28T03:25:32.516Z,13.73
2018-08-28T03:28:02.417Z,13.07
2018-08-28T03:30:31.979Z,14.27
2018-08-28T03:33:01.727Z,13.63
2018-08-28T03:35:31.410Z,11.00
2018-08-28T03:38:01.067Z,11.77
2018-08-28T03:40:30.815Z,11.77
2018-08-28T03:43:00.446Z,11.43
2018-08-28T03:45:30.134Z,14.13
2018-08-28T03:47:59.972Z,13.37
2018-08-28T03:50:30.306Z,13.73
2018-08-28T03:53:00.122Z,12.80
2018-08-28T03:55:29.996Z,13.00
2018-08-28T03:57:59.676Z,15.13
2018-08-28T04:00:29.346Z,15.13
2018-08-28T04:02:59.035Z,15.07
2018-08-28T04:05:28.711Z,15.03
2018-08-28T04:07:58.573Z,14.63
2018-08-28T04:10:28.929Z,15.97
2018-08-28T04:12:58.693Z,12.70
2018-08-28T04:15:28.481Z,13.23
2018-08-28T04:17:58.055Z,12.80
2018-08-28T04:20:27.804Z,12.50
2018-08-28T04:22:57.582Z,12.87
2018-08-28T04:25:27.255Z,13.83
2018-08-28T04:27:56.958Z,12.27
2018-08-28T04:30:26.732Z,13.57
2018-08-28T04:32:56.598Z,14.33
2018-08-28T04:35:26.308Z,14.57
2018-08-28T04:37:56.017Z,12.50
2018-08-28T04:40:25.837Z,13.67
2018-08-28T04:42:55.627Z,14.40
2018-08-28T04:45:25.193Z,12.67
2018-08-28T04:47:55.088Z,13.37
2018-08-28T04:50:24.847Z,8.57
2018-08-28T04:52:54.645Z,13.43
2018-08-28T04:55:24.302Z,11.30
2018-08-28T04:57:54.053Z,13.30
2018-08-28T05:00:23.797Z,10.43
2018-08-28T05:02:53.521Z,13.03
2018-08-28T05:05:23.195Z,9.97
2018-08-28T05:07:53.553Z,10.33
2018-08-28T05:10:23.369Z,12.17
2018-08-28T05:12:52.953Z,10.40
2018-08-28T05:15:22.678Z,15.87
2018-08-28T05:17:52.395Z,12.70
2018-08-28T05:20:22.239Z,11.00
2018-08-28T05:22:51.939Z,11.47
2018-08-28T05:25:21.857Z,9.47
2018-08-28T05:27:51.725Z,11.07
2018-08-28T05:30:22.189Z,10.03
2018-08-28T05:32:52.055Z,11.97
2018-08-28T05:35:21.799Z,10.40
2018-08-28T05:37:51.587Z,9.33
2018-08-28T05:40:22.196Z,10.97
2018-08-28T05:42:51.931Z,10.27
2018-08-28T05:45:21.667Z,9.77
2018-08-28T05:47:51.407Z,10.00
2018-08-28T05:50:21.339Z,12.60
2018-08-28T05:52:51.056Z,8.40
2018-08-28T05:55:20.908Z,10.10
2018-08-28T05:57:50.787Z,9.30
2018-08-28T06:00:20.692Z,8.87
2018-08-28T06:02:50.524Z,9.00
2018-08-28T06:05:20.358Z,10.07
2018-08-28T06:07:50.208Z,9.53
2018-08-28T06:10:19.860Z,8.87
2018-08-28T06:12:50.060Z,9.90
2018-08-28T06:15:19.776Z,10.13
2018-08-28T06:17:49.655Z,10.77
2018-08-28T06:20:19.438Z,7.17
2018-08-28T06:22:49.229Z,9.47
2018-08-28T06:25:18.989Z,8.90
2018-08-28T06:27:48.689Z,7.83
2018-08-28T06:30:18.460Z,8.13
2018-08-28T06:32:48.315Z,8.43
2018-08-28T06:35:18.074Z,8.43
2018-08-28T06:37:47.835Z,8.67
2018-08-28T06:40:17.637Z,8.57
2018-08-28T06:42:47.401Z,7.47
2018-08-28T06:45:17.220Z,8.63
2018-08-28T06:47:46.892Z,8.03
2018-08-28T06:50:16.561Z,7.57
2018-08-28T06:52:46.287Z,10.47
2018-08-28T06:55:16.110Z,9.93
2018-08-28T06:57:45.784Z,8.77
2018-08-28T07:00:15.475Z,9.27
2018-08-28T07:02:45.229Z,7.93
2018-08-28T07:05:16.143Z,9.07
2018-08-28T07:07:45.961Z,7.20
2018-08-28T07:10:15.949Z,9.33
2018-08-28T07:12:45.691Z,7.07
2018-08-28T07:15:15.351Z,6.23
2018-08-28T07:17:44.938Z,9.30
2018-08-28T07:20:14.721Z,6.80
2018-08-28T07:22:44.591Z,9.63
2018-08-28T07:25:14.338Z,9.00
2018-08-28T07:27:44.026Z,8.00
2018-08-28T07:30:13.914Z,9.90
2018-08-28T07:32:43.720Z,7.53
2018-08-28T07:35:13.628Z,6.40
2018-08-28T07:37:43.466Z,5.30
2018-08-28T07:40:13.348Z,9.33
2018-08-28T07:42:42.987Z,8.47
2018-08-28T07:45:12.758Z,7.97
2018-08-28T07:47:42.402Z,7.70
2018-08-28T07:50:12.436Z,5.67
2018-08-28T07:52:42.154Z,5.07
2018-08-28T07:55:11.790Z,5.57
2018-08-28T07:57:41.525Z,7.93
2018-08-28T08:00:11.256Z,5.77
2018-08-28T08:02:40.944Z,7.47
2018-08-28T08:05:10.740Z,5.50
2018-08-28T08:07:40.564Z,6.80
2018-08-28T08:10:10.376Z,6.67
2018-08-28T08:12:40.057Z,5.70
2018-08-28T08:15:09.661Z,6.10
2018-08-28T08:17:39.581Z,7.57
2018-08-28T08:20:09.343Z,5.33
2018-08-28T08:22:39.083Z,7.27
2018-08-28T08:25:08.987Z,6.90
2018-08-28T08:30:21.229Z,9.07
2018-08-28T08:32:51.051Z,6.33
2018-08-28T08:35:20.920Z,7.07
2018-08-28T08:37:50.786Z,5.93
2018-08-28T08:40:20.455Z,6.13
2018-08-28T08:42:50.126Z,6.67
2018-08-28T08:45:19.954Z,7.80
2018-08-28T08:47:49.623Z,8.13
2018-08-28T08:50:19.542Z,6.20
2018-08-28T08:52:49.358Z,7.13
2018-08-28T08:55:19.110Z,6.83
2018-08-28T08:57:49.006Z,7.30
2018-08-28T09:00:18.736Z,6.37
2018-08-28T09:02:48.558Z,6.33
2018-08-28T09:05:18.228Z,6.40
2018-08-28T09:07:48.023Z,4.67
2018-08-28T09:10:17.556Z,6.40
2018-08-28T09:12:47.437Z,7.10
2018-08-28T09:15:17.221Z,7.07
2018-08-28T09:17:47.128Z,6.17
2018-08-28T09:20:16.831Z,6.73
2018-08-28T09:22:46.517Z,6.10
2018-08-28T09:25:16.091Z,7.10
2018-08-28T09:27:45.801Z,7.50
2018-08-28T09:30:15.419Z,7.37
2018-08-28T09:32:45.103Z,7.00
2018-08-28T09:35:14.824Z,6.70
2018-08-28T09:37:44.519Z,7.67
2018-08-28T09:40:14.144Z,5.60
2018-08-28T09:42:43.895Z,7.40
2018-08-28T09:45:13.575Z,7.13
2018-08-28T09:47:43.295Z,7.57
2018-08-28T09:50:13.167Z,7.57
2018-08-28T09:52:42.846Z,8.30
2018-08-28T09:55:12.577Z,7.40
2018-08-28T09:57:42.357Z,6.23
2018-08-28T10:00:17.252Z,7.33
2018-08-28T10:02:47.180Z,10.03
2018-08-28T10:05:16.909Z,7.93
2018-08-28T10:07:46.769Z,6.17
2018-08-28T10:10:16.415Z,7.80
2018-08-28T10:12:46.172Z,6.47
2018-08-28T10:15:15.858Z,7.47
2018-08-28T10:17:45.541Z,8.30
2018-08-28T10:20:15.169Z,7.80
2018-08-28T10:22:45.071Z,9.40
2018-08-28T10:25:14.731Z,9.30
2018-08-28T10:27:44.731Z,9.40
2018-08-28T10:30:14.701Z,9.57
2018-08-28T10:32:44.355Z,8.93
2018-08-28T10:35:14.091Z,8.27
2018-08-28T10:37:43.844Z,7.00
2018-08-28T10:40:13.617Z,8.63
2018-08-28T10:42:43.507Z,6.67
2018-08-28T10:45:13.435Z,9.63
2018-08-28T10:47:43.037Z,8.00
2018-08-28T10:50:12.740Z,7.40
2018-08-28T10:52:42.655Z,7.20
2018-08-28T10:55:12.386Z,7.70
2018-08-28T10:57:42.126Z,7.83
2018-08-28T11:00:12.050Z,8.20
2018-08-28T11:02:41.845Z,7.63
2018-08-28T11:05:11.718Z,8.00
2018-08-28T11:07:41.494Z,8.90
2018-08-28T11:10:11.512Z,8.07
2018-08-28T11:12:41.212Z,6.83
2018-08-28T11:15:11.099Z,7.87
2018-08-28T11:17:40.924Z,8.93
2018-08-28T11:20:10.794Z,6.37
2018-08-28T11:22:40.576Z,5.97
2018-08-28T11:25:10.761Z,7.13
2018-08-28T11:27:40.566Z,7.50
2018-08-28T11:30:10.395Z,6.30
2018-08-28T11:32:40.297Z,6.53
2018-08-28T11:35:10.055Z,7.27
2018-08-28T11:37:39.903Z,7.33
2018-08-28T11:40:09.626Z,6.90
2018-08-28T11:42:39.381Z,7.03
2018-08-28T11:45:09.483Z,6.10
2018-08-28T11:47:39.377Z,7.53
2018-08-28T11:50:09.604Z,7.67
2018-08-28T11:52:39.397Z,7.50
2018-08-28T11:55:09.283Z,8.67
2018-08-28T11:57:39.468Z,8.27
2018-08-28T12:00:09.358Z,6.13
2018-08-28T12:02:39.155Z,6.77
2018-08-28T12:05:08.823Z,6.27
2018-08-28T12:07:38.471Z,7.57
2018-08-28T12:10:09.355Z,8.03
2018-08-28T12:12:39.119Z,6.23
2018-08-28T12:15:09.017Z,5.90
2018-08-28T12:17:39.051Z,7.10
2018-08-28T12:20:10.101Z,8.73
2018-08-28T12:22:39.887Z,7.80
2018-08-28T12:25:10.208Z,8.33
2018-08-28T12:27:39.859Z,5.70
2018-08-28T12:30:11.430Z,7.53
2018-08-28T12:32:41.141Z,8.07
2018-08-28T12:35:10.804Z,6.80
2018-08-28T12:37:40.561Z,7.00
2018-08-28T12:40:10.317Z,9.20
2018-08-28T12:42:40.192Z,6.87
2018-08-28T12:45:09.992Z,6.63
2018-08-28T12:47:40.235Z,6.77
2018-08-28T12:50:10.943Z,6.47
2018-08-28T12:52:40.604Z,9.00
2018-08-28T12:55:10.375Z,6.70
2018-08-28T12:57:40.109Z,10.70
2018-08-28T13:00:10.001Z,6.90
2018-08-28T13:02:39.879Z,6.10
2018-08-28T13:05:09.663Z,5.87
2018-08-28T13:07:39.566Z,6.83
2018-08-28T13:10:09.660Z,6.03
2018-08-28T13:12:39.800Z,6.83
2018-08-28T13:15:09.704Z,5.67
2018-08-28T13:17:39.587Z,6.70
2018-08-28T13:20:09.469Z,8.33
2018-08-28T13:22:39.434Z,7.10
2018-08-28T13:25:10.013Z,9.13
2018-08-28T13:27:41.059Z,7.47
2018-08-28T13:30:11.162Z,7.10
2018-08-28T13:32:40.884Z,9.17
2018-08-28T13:35:11.518Z,7.53
2018-08-28T13:37:41.720Z,6.37
2018-08-28T13:40:12.575Z,6.67
2018-08-28T13:42:42.338Z,7.57
2018-08-28T13:45:12.412Z,7.07
2018-08-28T13:47:42.210Z,7.47
2018-08-28T13:50:12.850Z,8.37
2018-08-28T13:52:42.682Z,7.80
2018-08-28T13:55:12.900Z,6.87
2018-08-28T13:57:42.903Z,8.40
2018-08-28T14:00:12.898Z,7.77
2018-08-28T14:02:42.951Z,8.60
2018-08-28T14:05:12.728Z,6.97
2018-08-28T14:07:43.086Z,6.37
2018-08-28T14:10:13.194Z,7.87
2018-08-28T14:12:43.329Z,9.70
2018-08-28T14:15:13.932Z,7.80
2018-08-28T14:17:43.905Z,7.57
2018-08-28T14:20:14.185Z,6.67
2018-08-28T14:22:45.262Z,6.97
2018-08-28T14:25:15.663Z,6.70
2018-08-28T14:27:45.316Z,6.03
2018-08-28T14:30:15.970Z,6.00
2018-08-28T14:32:45.755Z,10.07
2018-08-28T14:35:15.541Z,7.50
2018-08-28T14:37:45.308Z,7.77
2018-08-28T14:40:15.027Z,8.63
2018-08-28T14:42:46.549Z,7.40
2018-08-28T14:45:16.538Z,7.30
2018-08-28T14:47:46.453Z,6.57
2018-08-28T14:50:16.332Z,7.43
2018-08-28T14:52:46.428Z,7.63
2018-08-28T14:55:16.467Z,6.83
2018-08-28T14:57:49.590Z,7.63
2018-08-28T15:00:19.530Z,8.73
2018-08-28T15:02:50.739Z,8.33
2018-08-28T15:05:20.405Z,8.90
2018-08-28T15:07:50.451Z,9.27
2018-08-28T15:10:20.681Z,8.00
2018-08-28T15:12:51.051Z,9.50
2018-08-28T15:15:21.078Z,9.17
2018-08-28T15:17:51.959Z,8.07
2018-08-28T15:20:22.660Z,8.30
2018-08-28T15:22:52.442Z,8.07
2018-08-28T15:25:22.526Z,6.00
2018-08-28T15:27:52.906Z,8.00
2018-08-28T15:30:22.662Z,8.00
2018-08-28T15:32:53.283Z,6.87
2018-08-28T15:35:24.156Z,6.70
2018-08-28T15:37:54.840Z,6.83
2018-08-28T15:40:24.756Z,7.97
2018-08-28T15:42:55.002Z,9.40
2018-08-28T15:45:25.082Z,6.10
2018-08-28T15:47:55.170Z,9.20
2018-08-28T15:50:25.307Z,5.90
2018-08-28T15:52:55.908Z,6.90
2018-08-28T15:55:25.986Z,8.13
2018-08-28T15:57:55.949Z,7.63
2018-08-28T16:00:26.527Z,7.90
2018-08-28T16:02:56.411Z,7.83
2018-08-28T16:05:26.286Z,6.90
2018-08-28T16:07:56.147Z,6.90
2018-08-28T16:10:25.895Z,8.90
2018-08-28T16:12:55.601Z,7.03
2018-08-28T16:15:25.516Z,7.37
2018-08-28T16:17:56.399Z,6.83
2018-08-28T16:20:26.629Z,8.90
2018-08-28T16:23:02.768Z,7.17
2018-08-28T16:25:34.647Z,6.57
2018-08-28T16:28:04.444Z,7.30
2018-08-28T16:30:34.838Z,9.10
2018-08-28T16:33:04.652Z,8.93
2018-08-28T16:35:34.882Z,7.93
2018-08-28T16:38:04.653Z,7.83
2018-08-28T16:40:34.612Z,6.90
2018-08-28T16:43:04.414Z,7.70
2018-08-28T16:45:34.360Z,7.77
2018-08-28T16:48:04.110Z,8.13
2018-08-28T16:50:34.170Z,9.67
2018-08-28T16:53:05.208Z,8.93
2018-08-28T16:55:35.240Z,7.00
2018-08-28T16:58:05.154Z,5.80
2018-08-28T17:00:34.905Z,8.97
2018-08-28T17:03:04.744Z,8.40
2018-08-28T17:05:34.626Z,8.97
2018-08-28T17:08:04.569Z,7.70
2018-08-28T17:10:34.430Z,6.67
2018-08-28T17:13:04.272Z,6.53
2018-08-28T17:15:34.053Z,8.67
2018-08-28T17:18:03.799Z,8.13
2018-08-28T17:20:33.773Z,7.47
2018-08-28T17:23:03.671Z,7.37
2018-08-28T17:25:33.398Z,6.80
2018-08-28T17:28:03.097Z,6.97
2018-08-28T17:30:34.063Z,7.97
2018-08-28T17:33:04.465Z,9.50
2018-08-28T17:35:34.151Z,10.33
2018-08-28T17:38:04.683Z,9.47
2018-08-28T17:40:34.650Z,8.43
2018-08-28T17:43:04.468Z,8.50
2018-08-28T17:45:34.487Z,12.00
2018-08-28T17:48:06.999Z,7.97
2018-08-28T17:50:37.823Z,7.93
2018-08-28T17:53:07.922Z,9.40
2018-08-28T17:55:38.092Z,8.17
2018-08-28T17:58:07.874Z,10.00
2018-08-28T18:00:37.616Z,8.17
2018-08-28T18:03:07.340Z,8.37
2018-08-28T18:05:37.568Z,9.37
2018-08-28T18:08:07.572Z,9.73
2018-08-28T18:10:37.695Z,8.47
2018-08-28T18:13:08.385Z,9.27
2018-08-28T18:15:38.585Z,9.57
2018-08-28T18:18:08.806Z,9.23
2018-08-28T18:20:38.540Z,10.57
2018-08-28T18:23:08.180Z,11.63
2018-08-28T18:25:38.151Z,12.27
2018-08-28T18:28:08.130Z,10.53
2018-08-28T18:30:38.114Z,13.13
2018-08-28T18:33:08.241Z,14.50
2018-08-28T18:35:38.024Z,13.83
2018-08-28T18:38:07.731Z,12.33
2018-08-28T18:40:37.847Z,15.47
2018-08-28T18:43:07.623Z,15.23
2018-08-28T18:45:37.796Z,13.20
2018-08-28T18:48:07.716Z,13.23
2018-08-28T18:50:38.963Z,16.27
2018-08-28T18:53:08.945Z,17.83
2018-08-28T18:55:38.739Z,16.73
2018-08-28T18:58:09.241Z,13.37
2018-08-28T19:00:39.261Z,16.33
2018-08-28T19:03:09.112Z,17.00
2018-08-28T19:05:39.007Z,17.63
2018-08-28T19:08:09.147Z,15.63
2018-08-28T19:10:39.167Z,14.80
2018-08-28T19:13:09.257Z,13.73
2018-08-28T19:15:39.199Z,17.23
2018-08-28T19:18:08.934Z,37.57
2018-08-28T19:20:38.787Z,58.03
2018-08-28T19:23:14.618Z,137.13
2018-08-28T19:25:44.477Z,154.57
2018-08-28T19:28:14.487Z,113.13
2018-08-28T19:30:44.355Z,88.43
2018-08-28T19:33:14.577Z,69.40
2018-08-28T19:35:44.675Z,43.73
2018-08-28T19:38:14.593Z,38.07
2018-08-28T19:40:44.715Z,61.53
2018-08-28T19:43:14.693Z,121.40
2018-08-28T19:45:49.195Z,263.07
2018-08-28T19:48:20.984Z,317.93
2018-08-28T19:50:50.829Z,509.40
2018-08-28T19:53:21.730Z,514.17
2018-08-28T19:55:57.195Z,542.00
2018-08-28T19:58:27.063Z,479.40
2018-08-28T20:00:57.076Z,310.60
2018-08-28T20:03:26.781Z,259.10
2018-08-28T20:05:56.537Z,228.27
2018-08-28T20:08:26.344Z,163.33
2018-08-28T20:10:56.093Z,155.67
2018-08-28T20:13:25.935Z,105.90
2018-08-28T20:15:55.771Z,106.93
2018-08-28T20:18:25.461Z,92.07
2018-08-28T20:20:55.356Z,63.13
2018-08-28T20:23:25.269Z,63.40
2018-08-28T20:25:54.993Z,43.07
2018-08-28T20:28:25.515Z,33.10
2018-08-28T20:30:55.387Z,25.37
2018-08-28T20:33:25.500Z,25.07
2018-08-28T20:35:56.403Z,24.77
2018-08-28T20:38:26.438Z,20.53
2018-08-28T20:40:56.438Z,22.63
2018-08-28T20:43:26.306Z,17.97
2018-08-28T20:45:56.172Z,18.23
2018-08-28T20:48:26.116Z,18.17
2018-08-28T20:50:56.032Z,20.40
2018-08-28T20:53:25.922Z,19.67
2018-08-28T20:55:55.806Z,19.33
2018-08-28T20:58:25.820Z,18.27
2018-08-28T21:00:55.840Z,15.13
2018-08-28T21:03:26.064Z,17.37
2018-08-28T21:05:55.904Z,18.07
2018-08-28T21:08:25.978Z,18.63
2018-08-28T21:10:55.814Z,17.70
2018-08-28T21:13:40.342Z,17.50
2018-08-28T21:16:10.059Z,18.90
2018-08-28T21:18:39.896Z,21.10
2018-08-28T21:21:09.869Z,15.53
2018-08-28T21:23:39.858Z,19.97
2018-08-28T21:26:09.711Z,19.43
2018-08-28T21:28:39.595Z,16.30
2018-08-28T21:31:09.390Z,21.60
2018-08-28T21:33:39.148Z,19.60
2018-08-28T21:36:21.227Z,18.97
2018-08-28T21:38:50.976Z,15.97
2018-08-28T21:41:21.083Z,17.17
2018-08-28T21:43:50.748Z,19.10
2018-08-28T21:46:20.331Z,16.27
2018-08-28T21:48:50.117Z,19.30
2018-08-28T21:51:19.847Z,17.50
2018-08-28T21:53:49.540Z,18.77
2018-08-28T21:56:19.284Z,19.40
2018-08-28T21:58:48.969Z,27.87
2018-08-28T22:01:18.639Z,53.40
2018-08-28T22:03:48.338Z,62.13
2018-08-28T22:06:23.275Z,75.57
2018-08-28T22:08:52.924Z,71.43
2018-08-28T22:11:22.664Z,95.63
2018-08-28T22:13:52.475Z,102.50
2018-08-28T22:16:22.194Z,93.60
2018-08-28T22:18:51.862Z,77.23
2018-08-28T22:21:21.552Z,78.33
2018-08-28T22:23:51.258Z,64.47
2018-08-28T22:26:21.110Z,44.03
2018-08-28T22:28:50.770Z,59.77
2018-08-28T22:31:20.638Z,36.13
2018-08-28T22:33:50.428Z,35.17
2018-08-28T22:36:20.098Z,29.43
2018-08-28T22:38:49.830Z,20.93
2018-08-28T22:41:19.494Z,24.10
2018-08-28T22:43:49.352Z,18.23
2018-08-28T22:46:19.106Z,21.90
2018-08-28T22:48:48.823Z,21.37
2018-08-28T22:51:18.514Z,20.27
2018-08-28T22:53:48.224Z,21.33
2018-08-28T22:56:17.934Z,22.23
2018-08-28T22:58:47.602Z,17.47
2018-08-28T23:01:17.358Z,15.50
2018-08-28T23:03:47.070Z,16.07
2018-08-28T23:06:16.763Z,16.60
2018-08-28T23:08:46.488Z,16.17
2018-08-28T23:11:16.171Z,14.90
2018-08-28T23:13:45.909Z,15.57
2018-08-28T23:16:15.572Z,13.93
2018-08-28T23:18:45.358Z,13.97
2018-08-28T23:21:15.038Z,16.47
2018-08-28T23:23:44.768Z,14.07
2018-08-28T23:26:14.434Z,13.03
2018-08-28T23:28:44.307Z,12.30
2018-08-28T23:31:14.186Z,13.03
2018-08-28T23:33:43.811Z,15.13
2018-08-28T23:36:13.478Z,11.73
2018-08-28T23:38:43.267Z,12.83
2018-08-28T23:41:12.922Z,10.47
2018-08-28T23:43:42.690Z,13.43
2018-08-28T23:46:12.496Z,11.83
2018-08-28T23:48:42.090Z,13.00
2018-08-28T23:51:11.796Z,13.27
2018-08-28T23:53:41.478Z,12.63
2018-08-28T23:56:11.090Z,13.33
2018-08-28T23:58:40.726Z,13.27
